createdAt,value
2022-07-27T00:02:36.921Z,17.71
2022-07-27T00:07:44.043Z,17.69
2022-07-27T00:12:52.471Z,17.62
2022-07-27T00:18:29.757Z,17.64
2022-07-27T00:24:01.963Z,17.62
2022-07-27T00:29:10.742Z,17.55
2022-07-27T00:34:18.179Z,17.53
2022-07-27T00:39:49.952Z,17.55
2022-07-27T00:45:05.486Z,17.50
2022-07-27T00:50:37.844Z,17.51
2022-07-27T00:56:09.920Z,17.45
2022-07-27T01:01:20.650Z,17.38
2022-07-27T01:06:52.766Z,17.27
2022-07-27T01:12:25.513Z,17.30
2022-07-27T01:17:58.191Z,17.22
2022-07-27T01:23:32.941Z,17.20
2022-07-27T01:29:04.616Z,17.18
2022-07-27T01:34:11.533Z,17.12
2022-07-27T01:39:26.076Z,17.12
2022-07-27T01:45:22.446Z,17.15
2022-07-27T01:50:56.081Z,17.04
2022-07-27T01:56:33.175Z,17.09
2022-07-27T02:02:05.207Z,17.12
2022-07-27T02:07:12.212Z,17.08
2022-07-27T02:12:45.361Z,17.04
2022-07-27T02:18:40.897Z,17.07
2022-07-27T02:23:51.533Z,17.07
2022-07-27T02:29:03.094Z,17.10
2022-07-27T02:34:10.568Z,17.08
2022-07-27T02:39:17.564Z,17.05
2022-07-27T02:44:50.367Z,17.08
2022-07-27T02:50:22.768Z,17.07
2022-07-27T02:56:19.510Z,17.05
2022-07-27T03:01:35.148Z,16.91
2022-07-27T03:07:07.106Z,16.96
2022-07-27T03:12:39.155Z,16.92
2022-07-27T03:17:51.521Z,16.90
2022-07-27T03:22:58.385Z,16.76
2022-07-27T03:28:05.471Z,16.67
2022-07-27T03:33:43.709Z,16.60
2022-07-27T03:39:15.585Z,16.66
2022-07-27T03:44:46.843Z,16.60
2022-07-27T03:49:55.053Z,16.46
2022-07-27T03:55:02.255Z,16.53
2022-07-27T04:00:35.082Z,16.48
2022-07-27T04:06:08.996Z,16.45
2022-07-27T04:11:17.647Z,16.41
2022-07-27T04:16:51.234Z,16.44
2022-07-27T04:22:00.809Z,16.47
2022-07-27T04:27:08.105Z,16.44
2022-07-27T04:32:40.409Z,16.41
2022-07-27T04:37:59.445Z,16.42
2022-07-27T04:43:11.132Z,16.37
2022-07-27T04:48:49.431Z,16.45
2022-07-27T04:54:22.529Z,16.49
2022-07-27T04:59:30.845Z,16.55
2022-07-27T05:04:38.009Z,16.55
2022-07-27T05:10:17.984Z,16.55
2022-07-27T05:15:27.663Z,16.63
2022-07-27T05:20:59.174Z,16.62
2022-07-27T05:26:36.532Z,16.68
2022-07-27T05:31:46.264Z,16.66
2022-07-27T05:36:54.227Z,16.67
2022-07-27T05:42:07.367Z,16.74
2022-07-27T05:47:40.374Z,16.77
2022-07-27T05:52:48.717Z,16.78
2022-07-27T05:57:57.455Z,16.83
2022-07-27T06:03:29.362Z,16.82
2022-07-27T06:08:41.265Z,16.88
2022-07-27T06:13:51.121Z,16.90
2022-07-27T06:19:23.398Z,16.94
2022-07-27T06:24:55.337Z,16.95
2022-07-27T06:30:34.188Z,16.99
2022-07-27T06:36:06.211Z,17.04
2022-07-27T06:41:13.198Z,17.06
2022-07-27T06:46:46.950Z,17.09
2022-07-27T06:51:59.775Z,17.11
2022-07-27T06:57:07.379Z,17.12
2022-07-27T07:02:16.112Z,17.15
2022-07-27T07:07:23.210Z,17.20
2022-07-27T07:12:30.198Z,17.22
2022-07-27T07:18:07.286Z,17.25
2022-07-27T07:23:39.277Z,17.25
2022-07-27T07:28:46.555Z,17.27
2022-07-27T07:33:56.446Z,17.35
2022-07-27T07:39:03.948Z,17.42
2022-07-27T07:44:10.910Z,17.49
2022-07-27T07:49:21.498Z,17.50
2022-07-27T07:55:10.196Z,17.50
2022-07-27T08:00:44.334Z,17.51
2022-07-27T08:06:17.946Z,17.55
2022-07-27T08:11:49.610Z,17.59
2022-07-27T08:16:56.815Z,17.64
2022-07-27T08:22:05.332Z,17.68
2022-07-27T08:27:12.309Z,17.73
2022-07-27T08:32:19.322Z,17.80
2022-07-27T08:37:27.884Z,17.89
2022-07-27T08:43:00.047Z,17.96
2022-07-27T08:48:32.483Z,18.00
2022-07-27T08:53:52.538Z,18.08
2022-07-27T08:59:25.366Z,18.19
2022-07-27T09:04:32.961Z,18.31
2022-07-27T09:09:49.167Z,18.42
2022-07-27T09:15:08.885Z,18.51
2022-07-27T09:20:19.202Z,18.60
2022-07-27T09:31:31.371Z,18.69
2022-07-27T09:37:06.849Z,18.75
2022-07-27T09:43:05.445Z,18.86
2022-07-27T09:48:15.006Z,18.94
2022-07-27T09:53:42.345Z,18.98
2022-07-27T09:58:56.331Z,18.99
2022-07-27T10:04:07.074Z,18.96
2022-07-27T10:09:15.046Z,19.07
2022-07-27T10:14:27.779Z,19.08
2022-07-27T10:20:00.038Z,19.14
2022-07-27T10:25:38.126Z,19.21
2022-07-27T10:30:54.730Z,19.32
2022-07-27T10:36:03.678Z,19.47
2022-07-27T10:41:26.840Z,19.51
2022-07-27T10:46:44.873Z,19.58
2022-07-27T10:52:42.795Z,19.68
2022-07-27T10:58:49.689Z,19.70
2022-07-27T11:04:23.981Z,19.80
2022-07-27T11:10:04.411Z,19.83
2022-07-27T11:21:57.858Z,19.76
2022-07-27T11:27:17.050Z,19.76
2022-07-27T11:32:25.103Z,19.82
2022-07-27T11:37:33.839Z,19.90
2022-07-27T11:42:41.962Z,20.00
2022-07-27T11:47:59.314Z,20.04
2022-07-27T11:53:08.244Z,20.06
2022-07-27T11:58:18.836Z,20.07
2022-07-27T12:03:51.355Z,20.08
2022-07-27T12:09:25.112Z,20.09
2022-07-27T12:14:37.942Z,20.13
2022-07-27T12:19:51.624Z,20.27
2022-07-27T12:25:30.872Z,20.33
2022-07-27T12:30:46.958Z,20.39
2022-07-27T12:35:54.704Z,20.47
2022-07-27T12:41:10.839Z,20.52
2022-07-27T12:46:18.737Z,20.50
2022-07-27T12:51:28.467Z,20.50
2022-07-27T12:57:04.574Z,20.55
2022-07-27T13:02:12.054Z,20.63
2022-07-27T13:07:46.654Z,20.70
2022-07-27T13:12:56.385Z,20.81
2022-07-27T13:18:03.884Z,20.89
2022-07-27T13:23:11.292Z,20.86
2022-07-27T13:28:44.569Z,20.93
2022-07-27T13:33:52.724Z,20.95
2022-07-27T13:39:00.250Z,21.00
2022-07-27T13:44:30.051Z,21.02
2022-07-27T13:49:38.155Z,20.97
2022-07-27T13:54:47.549Z,21.04
2022-07-27T13:59:58.082Z,21.07
2022-07-27T14:05:06.221Z,21.10
2022-07-27T14:10:31.907Z,21.07
2022-07-27T14:15:53.002Z,21.03
2022-07-27T14:21:05.297Z,21.10
2022-07-27T14:26:13.534Z,21.11
2022-07-27T14:31:46.698Z,21.06
2022-07-27T14:36:53.346Z,21.07
2022-07-27T14:42:01.368Z,21.11
2022-07-27T14:47:11.260Z,21.10
2022-07-27T14:52:43.600Z,21.10
2022-07-27T14:58:16.008Z,21.12
2022-07-27T15:03:50.442Z,21.08
2022-07-27T15:09:22.723Z,21.09
2022-07-27T15:14:54.203Z,21.17
2022-07-27T15:20:27.214Z,21.15
2022-07-27T15:25:34.706Z,21.10
2022-07-27T15:31:07.401Z,21.09
2022-07-27T15:36:31.558Z,21.11
2022-07-27T15:41:39.807Z,21.18
2022-07-27T15:46:47.820Z,21.19
2022-07-27T15:52:21.178Z,21.13
2022-07-27T15:57:53.343Z,21.10
2022-07-27T16:03:26.047Z,21.05
2022-07-27T16:09:01.202Z,21.00
2022-07-27T16:14:08.655Z,20.95
2022-07-27T16:19:40.558Z,20.89
2022-07-27T16:25:13.774Z,20.94
2022-07-27T16:31:10.845Z,20.99
2022-07-27T16:36:24.419Z,20.97
2022-07-27T16:41:58.829Z,20.94
2022-07-27T16:47:07.203Z,20.89
2022-07-27T16:52:14.596Z,20.86
2022-07-27T16:57:24.207Z,20.80
2022-07-27T17:02:56.335Z,20.75
2022-07-27T17:08:11.422Z,20.66
2022-07-27T17:13:20.005Z,20.60
2022-07-27T17:18:27.856Z,20.54
2022-07-27T17:24:03.414Z,20.43
2022-07-27T17:29:11.897Z,20.37
2022-07-27T17:34:19.532Z,20.33
2022-07-27T17:39:26.427Z,20.28
2022-07-27T17:45:04.799Z,20.23
2022-07-27T17:50:12.288Z,20.20
2022-07-27T17:55:19.298Z,20.15
2022-07-27T18:00:32.728Z,20.12
2022-07-27T18:06:04.720Z,20.09
2022-07-27T18:11:15.003Z,20.04
2022-07-27T18:16:26.966Z,19.90
2022-07-27T18:21:39.138Z,19.77
2022-07-27T18:27:14.485Z,19.75
2022-07-27T18:32:27.613Z,19.59
2022-07-27T18:37:34.732Z,19.45
2022-07-27T18:42:42.317Z,19.06
2022-07-27T18:48:20.120Z,19.03
2022-07-27T18:53:51.698Z,18.96
2022-07-27T18:58:58.525Z,18.91
2022-07-27T19:04:58.249Z,18.81
2022-07-27T19:10:07.783Z,18.77
2022-07-27T19:15:40.520Z,18.67
2022-07-27T19:21:14.432Z,18.36
2022-07-27T19:26:46.571Z,18.31
2022-07-27T19:32:19.003Z,18.40
2022-07-27T19:37:52.621Z,18.40
2022-07-27T19:42:59.921Z,18.22
2022-07-27T19:48:10.107Z,18.26
2022-07-27T19:53:44.399Z,18.09
2022-07-27T19:58:56.646Z,18.02
2022-07-27T20:04:08.233Z,18.00
2022-07-27T20:09:41.354Z,17.79
2022-07-27T20:15:13.152Z,17.46
2022-07-27T20:20:44.938Z,17.32
2022-07-27T20:25:54.174Z,16.98
2022-07-27T20:31:50.437Z,16.74
2022-07-27T20:37:03.627Z,16.89
2022-07-27T20:42:37.752Z,16.71
2022-07-27T20:48:16.639Z,16.69
2022-07-27T20:53:29.146Z,16.39
2022-07-27T20:58:37.960Z,16.62
2022-07-27T21:03:44.799Z,16.71
2022-07-27T21:09:17.107Z,16.66
2022-07-27T21:14:50.293Z,16.55
2022-07-27T21:20:00.459Z,16.38
2022-07-27T21:25:32.104Z,16.48
2022-07-27T21:31:31.207Z,16.55
2022-07-27T21:37:03.029Z,16.55
2022-07-27T21:42:12.282Z,16.33
2022-07-27T21:47:45.646Z,16.25
2022-07-27T21:52:54.325Z,16.15
2022-07-27T21:58:01.634Z,16.04
2022-07-27T22:03:34.426Z,16.03
2022-07-27T22:08:42.447Z,16.01
2022-07-27T22:13:49.658Z,15.98
2022-07-27T22:19:02.034Z,16.00
2022-07-27T22:24:35.139Z,16.01
2022-07-27T22:30:11.056Z,16.04
2022-07-27T22:35:20.091Z,16.00
2022-07-27T22:40:52.644Z,16.07
2022-07-27T22:46:50.874Z,15.95
2022-07-27T22:51:59.195Z,15.91
2022-07-27T22:57:06.619Z,15.86
2022-07-27T23:02:13.389Z,15.85
2022-07-27T23:07:46.423Z,15.65
2022-07-27T23:12:53.203Z,15.62
2022-07-27T23:18:04.681Z,15.65
2022-07-27T23:23:16.353Z,15.67
2022-07-27T23:28:26.643Z,15.61
2022-07-27T23:33:59.125Z,15.57
2022-07-27T23:39:07.584Z,15.46
2022-07-27T23:44:14.847Z,15.43
2022-07-27T23:49:22.199Z,15.42
2022-07-27T23:55:20.724Z,15.44
